Stafford, VA

10:12 PM EST on January 22, 2017 (GMT -0500)
Stafford | | Change Station

Elev 213 ft 38.40 °N, 77.46 °W | Updated 17 minutes ago

Rain
Rain
49 °F
Feels Like 49 °F
N
5
Wind Variable Wind from NE

Today
High -- | Low -- °F
--% Chance of Precip.
Yesterday
High -- | Low -- °F
Precip. -- in
Pressure 29.64 in
Visibility 4.0 miles
Clouds Mostly Cloudy 400 ft
Overcast 900 ft
Dew Point 49 °F
Humidity 100%
Rainfall 0.00 in
Snow Depth Not available.
7:22 AM 5:21 PM
Waning Crescent, 22% visible
METAR KRMN 230255Z AUTO 05004KT 4SM RA BKN004 OVC009 09/09 A2964 RMK AO2 T00930093
Pressure 29.64 in
Visibility 4.0 miles
Clouds Mostly Cloudy 400 ft
Overcast 900 ft
Dew Point 49 °F
Humidity 100%
Rainfall 0.00 in
Snow Depth Not available.
7:22 AM 5:21 PM
Waning Crescent, 22% visible
METAR KRMN 230255Z AUTO 05004KT 4SM RA BKN004 OVC009 09/09 A2964 RMK AO2 T00930093

Get Your Daily Forecast Email!

Thanks for signing up!

Be on the lookout for a verification email in your inbox.

You'll start receiving the daily forecast at 8 AM.

×

10-Day Weather Forecast

Almanac

Astronomy

Jan. 22, 2017 Rise Set
Actual Time
Civil Twilight
Nautical Twilight
Astronomical Twilight
Moon
Length of Visible Light
Length of Day
Tomorrow will be .
, % of the Moon is Illuminated

Today's Extremes

State Highs State Lows

Community

WunderPhotos

Upload Photos

1,962,540 photos uploaded!

WunderBlog® & News

Nearby

Air Quality

  Air Quality AQ Index Pollutant
Not available.

Snow Depth

Station Depth Elevation

Earthquake Activity

City Distance Mag. Time & Date
Minimum magnitude displayed is 2.5.

Coastal Water Temperatures

Place Temperature

Stations

Nearby Weather Stations

Station Location Temp. Windchill Dew Point Humidity Wind Precip. Elev Updated Type
                   

Watches & Warnings

Small Craft Advisory, Gale Warning
Issued: 9:13 PM EST Jan. 22, 2017 – National Weather Service

... Small Craft Advisory remains in effect until 1 am EST Monday...
... Gale Warning remains in effect from 1 am to 6 PM EST Monday...

* winds... 18 to 33 knots within the Small Craft Advisory.

* Winds... 34 to 47 knots within the Gale Warning.

Precautionary/preparedness actions...

A Small Craft Advisory means winds of 18 to 33 knots are imminent
or occurring. Boaters operating smaller vessels should avoid
navigating in these conditions.

A Gale Warning means winds of 34 to 47 knots are imminent or
occurring. Operating a vessel in gale conditions requires
experience and a properly equipped vessel. Recreational boaters
should seek safe Harbor prior to the onset of gale conditions.